sensor_id;sensor_type;location;lat;lon;timestamp;temperature;humidity
25332;DHT22;13284;52.748;13.452;2023-02-11T00:01:07;3.30;99.90
25332;DHT22;13284;52.748;13.452;2023-02-11T00:03:33;3.30;99.90
25332;DHT22;13284;52.748;13.452;2023-02-11T00:06:00;3.30;99.90
25332;DHT22;13284;52.748;13.452;2023-02-11T00:08:25;3.40;99.90
25332;DHT22;13284;52.748;13.452;2023-02-11T00:10:55;3.40;99.90
25332;DHT22;13284;52.748;13.452;2023-02-11T00:13:21;3.50;99.90
25332;DHT22;13284;52.748;13.452;2023-02-11T00:15:47;3.50;99.90
25332;DHT22;13284;52.748;13.452;2023-02-11T00:18:13;3.50;99.90
25332;DHT22;13284;52.748;13.452;2023-02-11T00:20:38;3.50;99.90
25332;DHT22;13284;52.748;13.452;2023-02-11T00:23:04;3.50;99.90
25332;DHT22;13284;52.748;13.452;2023-02-11T00:25:30;3.50;99.90
25332;DHT22;13284;52.748;13.452;2023-02-11T00:27:55;3.50;99.90
25332;DHT22;13284;52.748;13.452;2023-02-11T00:30:21;3.50;99.90
25332;DHT22;13284;52.748;13.452;2023-02-11T00:32:47;3.50;99.90
25332;DHT22;13284;52.748;13.452;2023-02-11T00:35:12;3.60;99.90
25332;DHT22;13284;52.748;13.452;2023-02-11T00:37:38;3.50;99.90
25332;DHT22;13284;52.748;13.452;2023-02-11T00:40:04;3.60;99.90
25332;DHT22;13284;52.748;13.452;2023-02-11T00:42:30;3.60;99.90
25332;DHT22;13284;52.748;13.452;2023-02-11T00:44:55;3.60;99.90
25332;DHT22;13284;52.748;13.452;2023-02-11T00:47:21;3.60;99.90
25332;DHT22;13284;52.748;13.452;2023-02-11T00:49:46;3.60;99.90
25332;DHT22;13284;52.748;13.452;2023-02-11T00:52:12;3.60;99.90
25332;DHT22;13284;52.748;13.452;2023-02-11T00:54:37;3.70;99.90
25332;DHT22;13284;52.748;13.452;2023-02-11T00:57:03;3.70;99.90
25332;DHT22;13284;52.748;13.452;2023-02-11T00:59:29;3.70;99.90
25332;DHT22;13284;52.748;13.452;2023-02-11T01:01:55;3.80;99.90
25332;DHT22;13284;52.748;13.452;2023-02-11T01:04:20;3.80;99.90
25332;DHT22;13284;52.748;13.452;2023-02-11T01:06:46;3.80;99.90
25332;DHT22;13284;52.748;13.452;2023-02-11T01:09:12;3.80;99.90
25332;DHT22;13284;52.748;13.452;2023-02-11T01:11:38;3.80;99.90
25332;DHT22;13284;52.748;13.452;2023-02-11T01:14:04;3.80;99.90
25332;DHT22;13284;52.748;13.452;2023-02-11T01:16:30;3.90;99.90
25332;DHT22;13284;52.748;13.452;2023-02-11T01:18:55;3.90;99.90
25332;DHT22;13284;52.748;13.452;2023-02-11T01:21:21;4.00;99.90
25332;DHT22;13284;52.748;13.452;2023-02-11T01:23:46;4.00;99.90
25332;DHT22;13284;52.748;13.452;2023-02-11T01:26:12;4.10;99.90
25332;DHT22;13284;52.748;13.452;2023-02-11T01:28:38;4.10;99.90
25332;DHT22;13284;52.748;13.452;2023-02-11T01:31:04;4.00;99.90
25332;DHT22;13284;52.748;13.452;2023-02-11T01:33:29;4.10;99.90
25332;DHT22;13284;52.748;13.452;2023-02-11T01:35:58;4.10;99.90
25332;DHT22;13284;52.748;13.452;2023-02-11T01:38:25;4.10;99.90
25332;DHT22;13284;52.748;13.452;2023-02-11T01:40:54;4.10;99.90
25332;DHT22;13284;52.748;13.452;2023-02-11T01:43:20;4.00;99.90
25332;DHT22;13284;52.748;13.452;2023-02-11T01:48:15;4.00;99.90
25332;DHT22;13284;52.748;13.452;2023-02-11T01:50:43;4.10;99.90
25332;DHT22;13284;52.748;13.452;2023-02-11T01:53:11;4.10;99.90
25332;DHT22;13284;52.748;13.452;2023-02-11T01:55:56;4.10;99.90
25332;DHT22;13284;52.748;13.452;2023-02-11T01:58:43;4.10;99.90
25332;DHT22;13284;52.748;13.452;2023-02-11T02:01:12;4.10;99.90
25332;DHT22;13284;52.748;13.452;2023-02-11T02:03:42;4.10;99.90
25332;DHT22;13284;52.748;13.452;2023-02-11T02:06:17;4.00;99.90
25332;DHT22;13284;52.748;13.452;2023-02-11T02:09:19;4.00;99.90
25332;DHT22;13284;52.748;13.452;2023-02-11T02:11:46;4.00;99.90
25332;DHT22;13284;52.748;13.452;2023-02-11T02:14:11;4.10;99.90
25332;DHT22;13284;52.748;13.452;2023-02-11T02:16:37;4.10;99.90
25332;DHT22;13284;52.748;13.452;2023-02-11T02:19:14;4.10;99.90
25332;DHT22;13284;52.748;13.452;2023-02-11T02:24:57;4.00;99.90
25332;DHT22;13284;52.748;13.452;2023-02-11T02:33:44;4.00;99.90
25332;DHT22;13284;52.748;13.452;2023-02-11T02:36:27;4.00;99.90
25332;DHT22;13284;52.748;13.452;2023-02-11T02:39:00;4.00;99.90
25332;DHT22;13284;52.748;13.452;2023-02-11T02:41:32;4.00;99.90
25332;DHT22;13284;52.748;13.452;2023-02-11T02:43:58;4.10;99.90
25332;DHT22;13284;52.748;13.452;2023-02-11T02:46:27;4.00;99.90
25332;DHT22;13284;52.748;13.452;2023-02-11T02:48:54;4.10;99.90
25332;DHT22;13284;52.748;13.452;2023-02-11T03:09:07;4.00;99.90
25332;DHT22;13284;52.748;13.452;2023-02-11T03:11:36;4.00;99.90
25332;DHT22;13284;52.748;13.452;2023-02-11T03:14:05;4.00;99.90
25332;DHT22;13284;52.748;13.452;2023-02-11T03:16:32;4.00;99.90
25332;DHT22;13284;52.748;13.452;2023-02-11T03:19:22;4.00;99.90
25332;DHT22;13284;52.748;13.452;2023-02-11T03:21:50;4.00;99.90
25332;DHT22;13284;52.748;13.452;2023-02-11T03:24:24;4.00;99.90
25332;DHT22;13284;52.748;13.452;2023-02-11T03:26:54;4.00;99.90
25332;DHT22;13284;52.748;13.452;2023-02-11T03:29:31;4.00;99.90
25332;DHT22;13284;52.748;13.452;2023-02-11T03:32:05;4.00;99.90
25332;DHT22;13284;52.748;13.452;2023-02-11T03:34:40;3.90;99.90
25332;DHT22;13284;52.748;13.452;2023-02-11T03:40:01;4.00;99.90
25332;DHT22;13284;52.748;13.452;2023-02-11T03:42:32;3.90;99.90
25332;DHT22;13284;52.748;13.452;2023-02-11T03:45:04;3.90;99.90
25332;DHT22;13284;52.748;13.452;2023-02-11T03:47:32;3.90;99.90
25332;DHT22;13284;52.748;13.452;2023-02-11T03:50:02;3.90;99.90
25332;DHT22;13284;52.748;13.452;2023-02-11T03:52:29;3.90;99.90
25332;DHT22;13284;52.748;13.452;2023-02-11T03:54:57;3.90;99.90
25332;DHT22;13284;52.748;13.452;2023-02-11T03:57:24;4.00;99.90
25332;DHT22;13284;52.748;13.452;2023-02-11T03:59:51;4.00;99.90
25332;DHT22;13284;52.748;13.452;2023-02-11T04:02:17;4.00;99.90
25332;DHT22;13284;52.748;13.452;2023-02-11T04:04:43;4.00;99.90
25332;DHT22;13284;52.748;13.452;2023-02-11T04:07:11;4.10;99.90
25332;DHT22;13284;52.748;13.452;2023-02-11T04:09:36;4.10;99.90
25332;DHT22;13284;52.748;13.452;2023-02-11T04:12:02;4.10;99.90
25332;DHT22;13284;52.748;13.452;2023-02-11T04:14:28;4.10;99.90
25332;DHT22;13284;52.748;13.452;2023-02-11T04:16:53;4.10;99.90
25332;DHT22;13284;52.748;13.452;2023-02-11T04:19:19;4.20;99.90
25332;DHT22;13284;52.748;13.452;2023-02-11T04:21:45;4.20;99.90
25332;DHT22;13284;52.748;13.452;2023-02-11T04:24:11;4.20;99.90
25332;DHT22;13284;52.748;13.452;2023-02-11T04:26:37;4.20;99.90
25332;DHT22;13284;52.748;13.452;2023-02-11T04:29:02;4.20;99.90
25332;DHT22;13284;52.748;13.452;2023-02-11T04:31:28;4.20;99.90
25332;DHT22;13284;52.748;13.452;2023-02-11T04:33:54;4.20;99.90
25332;DHT22;13284;52.748;13.452;2023-02-11T04:36:19;4.20;99.90
25332;DHT22;13284;52.748;13.452;2023-02-11T04:38:44;4.20;99.90
25332;DHT22;13284;52.748;13.452;2023-02-11T04:41:10;4.20;99.90
25332;DHT22;13284;52.748;13.452;2023-02-11T04:43:35;4.20;99.90
25332;DHT22;13284;52.748;13.452;2023-02-11T04:46:01;4.20;99.90
25332;DHT22;13284;52.748;13.452;2023-02-11T04:48:26;4.20;99.90
25332;DHT22;13284;52.748;13.452;2023-02-11T04:50:52;4.20;99.90
25332;DHT22;13284;52.748;13.452;2023-02-11T04:53:18;4.30;99.90
25332;DHT22;13284;52.748;13.452;2023-02-11T04:55:43;4.30;99.90
25332;DHT22;13284;52.748;13.452;2023-02-11T04:58:09;4.20;99.90
25332;DHT22;13284;52.748;13.452;2023-02-11T05:00:34;4.20;99.90
25332;DHT22;13284;52.748;13.452;2023-02-11T05:03:00;4.20;99.90
25332;DHT22;13284;52.748;13.452;2023-02-11T05:05:25;4.30;99.90
25332;DHT22;13284;52.748;13.452;2023-02-11T05:07:51;4.30;99.90
25332;DHT22;13284;52.748;13.452;2023-02-11T05:10:16;4.20;99.90
25332;DHT22;13284;52.748;13.452;2023-02-11T05:12:42;4.30;99.90
25332;DHT22;13284;52.748;13.452;2023-02-11T05:15:07;4.30;99.90
25332;DHT22;13284;52.748;13.452;2023-02-11T05:17:33;4.30;99.90
25332;DHT22;13284;52.748;13.452;2023-02-11T05:19:58;4.30;99.90
25332;DHT22;13284;52.748;13.452;2023-02-11T05:22:24;4.30;99.90
25332;DHT22;13284;52.748;13.452;2023-02-11T05:24:49;4.30;99.90
25332;DHT22;13284;52.748;13.452;2023-02-11T05:27:15;4.40;99.90
25332;DHT22;13284;52.748;13.452;2023-02-11T05:29:40;4.40;99.90
25332;DHT22;13284;52.748;13.452;2023-02-11T05:32:06;4.40;99.90
25332;DHT22;13284;52.748;13.452;2023-02-11T05:34:33;4.40;99.90
25332;DHT22;13284;52.748;13.452;2023-02-11T05:36:59;4.50;99.90
25332;DHT22;13284;52.748;13.452;2023-02-11T05:39:24;4.50;99.90
25332;DHT22;13284;52.748;13.452;2023-02-11T05:41:50;4.50;99.90
25332;DHT22;13284;52.748;13.452;2023-02-11T05:44:15;4.50;99.90
25332;DHT22;13284;52.748;13.452;2023-02-11T05:46:41;4.60;99.90
25332;DHT22;13284;52.748;13.452;2023-02-11T05:49:06;4.60;99.90
25332;DHT22;13284;52.748;13.452;2023-02-11T05:51:32;4.70;99.90
25332;DHT22;13284;52.748;13.452;2023-02-11T05:53:57;4.60;99.90
25332;DHT22;13284;52.748;13.452;2023-02-11T05:56:23;4.60;99.90
25332;DHT22;13284;52.748;13.452;2023-02-11T05:58:48;4.60;99.90
25332;DHT22;13284;52.748;13.452;2023-02-11T06:01:14;4.60;99.90
25332;DHT22;13284;52.748;13.452;2023-02-11T06:03:39;4.60;99.90
25332;DHT22;13284;52.748;13.452;2023-02-11T06:06:11;4.70;99.90
25332;DHT22;13284;52.748;13.452;2023-02-11T06:08:37;4.60;99.90
25332;DHT22;13284;52.748;13.452;2023-02-11T06:11:06;4.60;99.90
25332;DHT22;13284;52.748;13.452;2023-02-11T06:13:32;4.60;99.90
25332;DHT22;13284;52.748;13.452;2023-02-11T06:16:12;4.70;99.90
25332;DHT22;13284;52.748;13.452;2023-02-11T06:18:38;4.70;99.90
25332;DHT22;13284;52.748;13.452;2023-02-11T06:21:10;4.70;99.90
25332;DHT22;13284;52.748;13.452;2023-02-11T06:23:37;4.70;99.90
25332;DHT22;13284;52.748;13.452;2023-02-11T06:26:04;4.80;99.90
25332;DHT22;13284;52.748;13.452;2023-02-11T06:28:30;4.80;99.90
25332;DHT22;13284;52.748;13.452;2023-02-11T06:30:56;4.80;99.90
25332;DHT22;13284;52.748;13.452;2023-02-11T06:33:22;4.80;99.90
25332;DHT22;13284;52.748;13.452;2023-02-11T06:35:48;4.80;99.90
25332;DHT22;13284;52.748;13.452;2023-02-11T06:38:13;4.80;99.90
25332;DHT22;13284;52.748;13.452;2023-02-11T06:40:39;4.90;99.90
25332;DHT22;13284;52.748;13.452;2023-02-11T06:43:04;4.80;99.90
25332;DHT22;13284;52.748;13.452;2023-02-11T06:45:30;4.90;99.90
25332;DHT22;13284;52.748;13.452;2023-02-11T06:47:55;4.90;99.90
25332;DHT22;13284;52.748;13.452;2023-02-11T06:50:21;4.90;99.90
25332;DHT22;13284;52.748;13.452;2023-02-11T06:52:46;4.90;99.90
25332;DHT22;13284;52.748;13.452;2023-02-11T06:55:13;5.00;99.90
25332;DHT22;13284;52.748;13.452;2023-02-11T06:57:38;5.00;99.90
25332;DHT22;13284;52.748;13.452;2023-02-11T07:00:05;5.10;99.90
25332;DHT22;13284;52.748;13.452;2023-02-11T07:02:30;5.10;99.90
25332;DHT22;13284;52.748;13.452;2023-02-11T07:04:56;5.10;99.90
25332;DHT22;13284;52.748;13.452;2023-02-11T07:07:21;5.10;99.90
25332;DHT22;13284;52.748;13.452;2023-02-11T07:09:47;5.10;99.90
25332;DHT22;13284;52.748;13.452;2023-02-11T07:12:12;5.10;99.90
25332;DHT22;13284;52.748;13.452;2023-02-11T07:14:38;5.20;99.90
25332;DHT22;13284;52.748;13.452;2023-02-11T07:17:04;5.10;99.90
25332;DHT22;13284;52.748;13.452;2023-02-11T07:19:29;5.20;99.90
25332;DHT22;13284;52.748;13.452;2023-02-11T07:21:55;5.20;99.90
25332;DHT22;13284;52.748;13.452;2023-02-11T07:24:20;5.20;99.90
25332;DHT22;13284;52.748;13.452;2023-02-11T07:26:46;5.20;99.90
25332;DHT22;13284;52.748;13.452;2023-02-11T07:29:11;5.20;99.90
25332;DHT22;13284;52.748;13.452;2023-02-11T07:31:37;5.30;99.90
25332;DHT22;13284;52.748;13.452;2023-02-11T07:34:03;5.30;99.90
25332;DHT22;13284;52.748;13.452;2023-02-11T07:36:30;5.40;99.90
25332;DHT22;13284;52.748;13.452;2023-02-11T07:38:56;5.30;99.90
25332;DHT22;13284;52.748;13.452;2023-02-11T07:41:23;5.40;99.90
25332;DHT22;13284;52.748;13.452;2023-02-11T07:43:49;5.50;99.90
25332;DHT22;13284;52.748;13.452;2023-02-11T07:46:21;5.50;99.90
25332;DHT22;13284;52.748;13.452;2023-02-11T07:48:47;5.60;99.90
25332;DHT22;13284;52.748;13.452;2023-02-11T07:51:18;5.60;99.90
25332;DHT22;13284;52.748;13.452;2023-02-11T07:53:44;5.70;99.90
25332;DHT22;13284;52.748;13.452;2023-02-11T07:56:12;5.70;99.90
25332;DHT22;13284;52.748;13.452;2023-02-11T07:58:38;5.70;99.90
25332;DHT22;13284;52.748;13.452;2023-02-11T08:01:07;5.80;99.90
25332;DHT22;13284;52.748;13.452;2023-02-11T08:03:34;5.70;99.90
25332;DHT22;13284;52.748;13.452;2023-02-11T08:06:08;5.80;99.90
25332;DHT22;13284;52.748;13.452;2023-02-11T08:08:37;5.80;99.90
25332;DHT22;13284;52.748;13.452;2023-02-11T08:11:13;5.80;99.90
25332;DHT22;13284;52.748;13.452;2023-02-11T08:13:39;5.90;99.90
25332;DHT22;13284;52.748;13.452;2023-02-11T08:16:05;5.90;99.90
25332;DHT22;13284;52.748;13.452;2023-02-11T08:18:32;5.90;99.90
25332;DHT22;13284;52.748;13.452;2023-02-11T08:21:04;5.90;99.90
25332;DHT22;13284;52.748;13.452;2023-02-11T08:23:30;5.90;99.90
25332;DHT22;13284;52.748;13.452;2023-02-11T08:26:00;6.00;99.90
25332;DHT22;13284;52.748;13.452;2023-02-11T08:28:26;6.00;99.90
25332;DHT22;13284;52.748;13.452;2023-02-11T08:30:51;6.00;99.90
25332;DHT22;13284;52.748;13.452;2023-02-11T08:33:17;6.10;99.90
25332;DHT22;13284;52.748;13.452;2023-02-11T08:35:42;6.10;99.90
25332;DHT22;13284;52.748;13.452;2023-02-11T08:38:08;6.10;99.90
25332;DHT22;13284;52.748;13.452;2023-02-11T08:40:33;6.10;99.90
25332;DHT22;13284;52.748;13.452;2023-02-11T08:42:59;6.10;99.90
25332;DHT22;13284;52.748;13.452;2023-02-11T08:45:24;6.10;99.90
25332;DHT22;13284;52.748;13.452;2023-02-11T08:47:50;6.10;99.90
25332;DHT22;13284;52.748;13.452;2023-02-11T08:50:15;6.20;99.90
25332;DHT22;13284;52.748;13.452;2023-02-11T08:52:41;6.20;99.90
25332;DHT22;13284;52.748;13.452;2023-02-11T08:55:07;6.20;99.90
25332;DHT22;13284;52.748;13.452;2023-02-11T08:57:33;6.20;99.90
25332;DHT22;13284;52.748;13.452;2023-02-11T08:59:58;6.20;99.90
25332;DHT22;13284;52.748;13.452;2023-02-11T09:02:24;6.20;99.90
25332;DHT22;13284;52.748;13.452;2023-02-11T09:04:49;6.30;99.90
25332;DHT22;13284;52.748;13.452;2023-02-11T09:07:15;6.30;99.90
25332;DHT22;13284;52.748;13.452;2023-02-11T09:09:40;6.30;99.90
25332;DHT22;13284;52.748;13.452;2023-02-11T09:12:06;6.30;99.90
25332;DHT22;13284;52.748;13.452;2023-02-11T09:14:31;6.30;99.90
25332;DHT22;13284;52.748;13.452;2023-02-11T09:16:57;6.30;99.90
25332;DHT22;13284;52.748;13.452;2023-02-11T09:19:25;6.30;99.90
25332;DHT22;13284;52.748;13.452;2023-02-11T09:21:50;6.40;99.90
25332;DHT22;13284;52.748;13.452;2023-02-11T09:24:16;6.40;99.90
25332;DHT22;13284;52.748;13.452;2023-02-11T09:26:42;6.40;99.90
25332;DHT22;13284;52.748;13.452;2023-02-11T09:29:08;6.40;99.90
25332;DHT22;13284;52.748;13.452;2023-02-11T09:31:33;6.40;99.90
25332;DHT22;13284;52.748;13.452;2023-02-11T09:34:01;6.50;99.90
25332;DHT22;13284;52.748;13.452;2023-02-11T09:36:31;6.40;99.90
25332;DHT22;13284;52.748;13.452;2023-02-11T09:38:59;6.50;99.90
25332;DHT22;13284;52.748;13.452;2023-02-11T09:42:06;6.60;99.90
25332;DHT22;13284;52.748;13.452;2023-02-11T09:44:39;6.50;99.90
25332;DHT22;13284;52.748;13.452;2023-02-11T09:47:29;6.60;99.90
25332;DHT22;13284;52.748;13.452;2023-02-11T09:50:33;6.50;99.90
25332;DHT22;13284;52.748;13.452;2023-02-11T09:53:30;6.60;99.90
25332;DHT22;13284;52.748;13.452;2023-02-11T09:56:01;6.60;99.90
25332;DHT22;13284;52.748;13.452;2023-02-11T09:58:33;6.60;99.90
25332;DHT22;13284;52.748;13.452;2023-02-11T10:01:38;6.60;99.90
25332;DHT22;13284;52.748;13.452;2023-02-11T10:07:32;6.60;99.90
25332;DHT22;13284;52.748;13.452;2023-02-11T10:13:35;6.60;99.90
25332;DHT22;13284;52.748;13.452;2023-02-11T10:16:51;6.60;99.90
25332;DHT22;13284;52.748;13.452;2023-02-11T10:23:22;6.70;99.90
25332;DHT22;13284;52.748;13.452;2023-02-11T10:25:58;6.70;99.90
25332;DHT22;13284;52.748;13.452;2023-02-11T10:28:45;6.70;99.90
25332;DHT22;13284;52.748;13.452;2023-02-11T10:31:28;6.70;99.90
25332;DHT22;13284;52.748;13.452;2023-02-11T10:34:20;6.70;99.90
25332;DHT22;13284;52.748;13.452;2023-02-11T10:37:15;6.70;99.90
25332;DHT22;13284;52.748;13.452;2023-02-11T10:40:43;6.70;99.90
25332;DHT22;13284;52.748;13.452;2023-02-11T10:43:48;6.70;99.90
25332;DHT22;13284;52.748;13.452;2023-02-11T10:46:38;6.60;99.90
25332;DHT22;13284;52.748;13.452;2023-02-11T10:49:05;6.70;99.90
25332;DHT22;13284;52.748;13.452;2023-02-11T10:51:32;6.70;99.90
25332;DHT22;13284;52.748;13.452;2023-02-11T11:00:51;6.70;99.90
25332;DHT22;13284;52.748;13.452;2023-02-11T11:03:19;6.70;99.90
25332;DHT22;13284;52.748;13.452;2023-02-11T11:05:48;6.70;99.90
25332;DHT22;13284;52.748;13.452;2023-02-11T11:08:15;6.70;99.90
25332;DHT22;13284;52.748;13.452;2023-02-11T11:10:44;6.70;99.90
25332;DHT22;13284;52.748;13.452;2023-02-11T11:13:26;6.70;99.90
25332;DHT22;13284;52.748;13.452;2023-02-11T11:18:40;6.70;99.90
25332;DHT22;13284;52.748;13.452;2023-02-11T11:21:14;6.70;99.90
25332;DHT22;13284;52.748;13.452;2023-02-11T11:23:47;6.80;99.90
25332;DHT22;13284;52.748;13.452;2023-02-11T11:26:15;6.80;99.90
25332;DHT22;13284;52.748;13.452;2023-02-11T11:31:25;6.80;99.90
25332;DHT22;13284;52.748;13.452;2023-02-11T11:33:54;6.80;99.90
25332;DHT22;13284;52.748;13.452;2023-02-11T11:36:22;6.80;99.90
25332;DHT22;13284;52.748;13.452;2023-02-11T11:39:00;6.80;99.90
25332;DHT22;13284;52.748;13.452;2023-02-11T11:41:32;6.90;99.90
25332;DHT22;13284;52.748;13.452;2023-02-11T11:44:00;6.90;99.90
25332;DHT22;13284;52.748;13.452;2023-02-11T11:46:33;6.90;99.90
25332;DHT22;13284;52.748;13.452;2023-02-11T11:49:10;7.00;99.90
25332;DHT22;13284;52.748;13.452;2023-02-11T11:51:41;7.00;99.90
25332;DHT22;13284;52.748;13.452;2023-02-11T11:54:11;7.00;99.90
25332;DHT22;13284;52.748;13.452;2023-02-11T11:56:55;7.00;99.90
25332;DHT22;13284;52.748;13.452;2023-02-11T11:59:23;7.00;99.90
25332;DHT22;13284;52.748;13.452;2023-02-11T12:02:00;7.10;99.90
25332;DHT22;13284;52.748;13.452;2023-02-11T12:05:00;7.10;99.90
25332;DHT22;13284;52.748;13.452;2023-02-11T12:10:57;7.10;99.90
25332;DHT22;13284;52.748;13.452;2023-02-11T12:13:36;7.10;99.90
25332;DHT22;13284;52.748;13.452;2023-02-11T12:22:46;7.10;99.90
25332;DHT22;13284;52.748;13.452;2023-02-11T12:25:27;7.20;99.90
25332;DHT22;13284;52.748;13.452;2023-02-11T12:28:09;7.20;99.90
25332;DHT22;13284;52.748;13.452;2023-02-11T12:33:57;7.20;99.90
25332;DHT22;13284;52.748;13.452;2023-02-11T12:36:48;7.20;99.90
25332;DHT22;13284;52.748;13.452;2023-02-11T12:39:22;7.30;99.90
25332;DHT22;13284;52.748;13.452;2023-02-11T12:42:24;7.20;99.90
25332;DHT22;13284;52.748;13.452;2023-02-11T12:45:24;7.20;99.90
25332;DHT22;13284;52.748;13.452;2023-02-11T12:48:05;7.20;99.90
25332;DHT22;13284;52.748;13.452;2023-02-11T12:51:07;7.20;99.90
25332;DHT22;13284;52.748;13.452;2023-02-11T12:54:07;7.30;99.90
25332;DHT22;13284;52.748;13.452;2023-02-11T12:57:02;7.30;99.90
25332;DHT22;13284;52.748;13.452;2023-02-11T13:02:32;7.30;99.90
25332;DHT22;13284;52.748;13.452;2023-02-11T13:05:04;7.30;99.90
25332;DHT22;13284;52.748;13.452;2023-02-11T13:07:38;7.30;99.90
25332;DHT22;13284;52.748;13.452;2023-02-11T13:10:30;7.30;99.90
25332;DHT22;13284;52.748;13.452;2023-02-11T13:12:57;7.30;99.90
25332;DHT22;13284;52.748;13.452;2023-02-11T13:26:38;7.30;99.90
25332;DHT22;13284;52.748;13.452;2023-02-11T13:31:55;7.40;99.90
25332;DHT22;13284;52.748;13.452;2023-02-11T13:34:54;7.40;99.90
25332;DHT22;13284;52.748;13.452;2023-02-11T13:37:25;7.40;99.90
25332;DHT22;13284;52.748;13.452;2023-02-11T13:42:33;7.40;99.90
25332;DHT22;13284;52.748;13.452;2023-02-11T13:45:41;7.40;99.90
25332;DHT22;13284;52.748;13.452;2023-02-11T13:48:22;7.40;99.90
25332;DHT22;13284;52.748;13.452;2023-02-11T13:50:51;7.50;99.90
25332;DHT22;13284;52.748;13.452;2023-02-11T13:53:18;7.40;99.90
25332;DHT22;13284;52.748;13.452;2023-02-11T13:55:45;7.40;99.90
25332;DHT22;13284;52.748;13.452;2023-02-11T13:58:32;7.40;99.90
25332;DHT22;13284;52.748;13.452;2023-02-11T14:01:00;7.40;99.90
25332;DHT22;13284;52.748;13.452;2023-02-11T14:03:35;7.40;99.90
25332;DHT22;13284;52.748;13.452;2023-02-11T14:06:28;7.40;99.90
25332;DHT22;13284;52.748;13.452;2023-02-11T14:09:35;7.40;99.90
25332;DHT22;13284;52.748;13.452;2023-02-11T14:15:00;7.30;99.90
25332;DHT22;13284;52.748;13.452;2023-02-11T14:17:27;7.30;99.90
25332;DHT22;13284;52.748;13.452;2023-02-11T14:19:55;7.30;99.90
25332;DHT22;13284;52.748;13.452;2023-02-11T14:22:28;7.40;99.90
25332;DHT22;13284;52.748;13.452;2023-02-11T14:25:00;7.30;99.90
25332;DHT22;13284;52.748;13.452;2023-02-11T14:27:41;7.40;99.90
25332;DHT22;13284;52.748;13.452;2023-02-11T14:36:32;7.40;99.90
25332;DHT22;13284;52.748;13.452;2023-02-11T14:41:40;7.40;99.90
25332;DHT22;13284;52.748;13.452;2023-02-11T14:44:19;7.40;99.90
25332;DHT22;13284;52.748;13.452;2023-02-11T14:46:47;7.30;99.90
25332;DHT22;13284;52.748;13.452;2023-02-11T14:49:25;7.40;99.90
25332;DHT22;13284;52.748;13.452;2023-02-11T14:51:55;7.40;99.90
25332;DHT22;13284;52.748;13.452;2023-02-11T14:54:24;7.40;99.90
25332;DHT22;13284;52.748;13.452;2023-02-11T14:57:13;7.40;99.90
25332;DHT22;13284;52.748;13.452;2023-02-11T14:59:57;7.40;99.90
25332;DHT22;13284;52.748;13.452;2023-02-11T15:02:28;7.40;99.90
25332;DHT22;13284;52.748;13.452;2023-02-11T15:04:54;7.40;99.90
25332;DHT22;13284;52.748;13.452;2023-02-11T15:07:20;7.40;99.90
25332;DHT22;13284;52.748;13.452;2023-02-11T15:09:50;7.50;99.90
25332;DHT22;13284;52.748;13.452;2023-02-11T15:12:23;7.40;99.90
25332;DHT22;13284;52.748;13.452;2023-02-11T15:14:51;7.50;99.90
25332;DHT22;13284;52.748;13.452;2023-02-11T15:17:21;7.50;99.90
25332;DHT22;13284;52.748;13.452;2023-02-11T15:19:49;7.50;99.90
25332;DHT22;13284;52.748;13.452;2023-02-11T15:22:19;7.50;99.90
25332;DHT22;13284;52.748;13.452;2023-02-11T15:25:01;7.50;99.90
25332;DHT22;13284;52.748;13.452;2023-02-11T15:27:40;7.50;99.90
25332;DHT22;13284;52.748;13.452;2023-02-11T15:30:28;7.50;99.90
25332;DHT22;13284;52.748;13.452;2023-02-11T15:32:59;7.50;99.90
25332;DHT22;13284;52.748;13.452;2023-02-11T15:35:36;7.50;99.90
25332;DHT22;13284;52.748;13.452;2023-02-11T15:38:03;7.60;99.90
25332;DHT22;13284;52.748;13.452;2023-02-11T15:40:31;7.60;99.90
25332;DHT22;13284;52.748;13.452;2023-02-11T15:43:01;7.60;99.90
25332;DHT22;13284;52.748;13.452;2023-02-11T15:45:33;7.50;99.90
25332;DHT22;13284;52.748;13.452;2023-02-11T15:48:11;7.50;99.90
25332;DHT22;13284;52.748;13.452;2023-02-11T15:50:38;7.60;99.90
25332;DHT22;13284;52.748;13.452;2023-02-11T15:53:24;7.50;99.90
25332;DHT22;13284;52.748;13.452;2023-02-11T15:55:55;7.50;99.90
25332;DHT22;13284;52.748;13.452;2023-02-11T15:58:23;7.50;99.90
25332;DHT22;13284;52.748;13.452;2023-02-11T16:00:50;7.50;99.90
25332;DHT22;13284;52.748;13.452;2023-02-11T16:03:23;7.50;99.90
25332;DHT22;13284;52.748;13.452;2023-02-11T16:05:49;7.60;99.90
25332;DHT22;13284;52.748;13.452;2023-02-11T16:08:27;7.60;99.90
25332;DHT22;13284;52.748;13.452;2023-02-11T16:10:59;7.60;99.90
25332;DHT22;13284;52.748;13.452;2023-02-11T16:13:29;7.50;99.90
25332;DHT22;13284;52.748;13.452;2023-02-11T16:16:22;7.50;99.90
25332;DHT22;13284;52.748;13.452;2023-02-11T16:18:53;7.40;99.90
25332;DHT22;13284;52.748;13.452;2023-02-11T16:21:26;7.50;99.90
25332;DHT22;13284;52.748;13.452;2023-02-11T16:23:55;7.50;99.90
25332;DHT22;13284;52.748;13.452;2023-02-11T16:26:31;7.50;99.90
25332;DHT22;13284;52.748;13.452;2023-02-11T16:29:07;7.50;99.90
25332;DHT22;13284;52.748;13.452;2023-02-11T16:31:37;7.50;99.90
25332;DHT22;13284;52.748;13.452;2023-02-11T16:34:11;7.60;99.90
25332;DHT22;13284;52.748;13.452;2023-02-11T16:36:37;7.60;99.90
25332;DHT22;13284;52.748;13.452;2023-02-11T16:39:05;7.60;99.90
25332;DHT22;13284;52.748;13.452;2023-02-11T16:41:31;7.60;99.90
25332;DHT22;13284;52.748;13.452;2023-02-11T16:43:56;7.60;99.90
25332;DHT22;13284;52.748;13.452;2023-02-11T16:46:23;7.60;99.90
25332;DHT22;13284;52.748;13.452;2023-02-11T16:48:48;7.60;99.90
25332;DHT22;13284;52.748;13.452;2023-02-11T16:51:14;7.60;99.90
25332;DHT22;13284;52.748;13.452;2023-02-11T16:53:40;7.60;99.90
25332;DHT22;13284;52.748;13.452;2023-02-11T16:56:06;7.60;99.90
25332;DHT22;13284;52.748;13.452;2023-02-11T16:58:34;7.70;99.90
25332;DHT22;13284;52.748;13.452;2023-02-11T17:00:59;7.60;99.90
25332;DHT22;13284;52.748;13.452;2023-02-11T17:03:25;7.70;99.90
25332;DHT22;13284;52.748;13.452;2023-02-11T17:05:51;7.60;99.90
25332;DHT22;13284;52.748;13.452;2023-02-11T17:08:18;7.70;99.90
25332;DHT22;13284;52.748;13.452;2023-02-11T17:10:43;7.70;99.90
25332;DHT22;13284;52.748;13.452;2023-02-11T17:13:09;7.70;99.90
25332;DHT22;13284;52.748;13.452;2023-02-11T17:15:34;7.70;99.90
25332;DHT22;13284;52.748;13.452;2023-02-11T17:18:00;7.60;99.90
25332;DHT22;13284;52.748;13.452;2023-02-11T17:20:26;7.60;99.90
25332;DHT22;13284;52.748;13.452;2023-02-11T17:22:52;7.60;99.90
25332;DHT22;13284;52.748;13.452;2023-02-11T17:25:17;7.60;99.90
25332;DHT22;13284;52.748;13.452;2023-02-11T17:27:43;7.60;99.90
25332;DHT22;13284;52.748;13.452;2023-02-11T17:30:09;7.50;99.90
25332;DHT22;13284;52.748;13.452;2023-02-11T17:32:35;7.50;99.90